createdAt,value
2019-02-25T00:01:25.326Z,100.00
2019-02-25T00:03:52.377Z,100.00
2019-02-25T00:06:19.631Z,100.00
2019-02-25T00:08:46.852Z,100.00
2019-02-25T00:11:13.962Z,100.00
2019-02-25T00:13:40.999Z,100.00
2019-02-25T00:16:09.537Z,100.00
2019-02-25T00:18:36.716Z,100.00
2019-02-25T00:21:03.766Z,100.00
2019-02-25T00:23:30.855Z,100.00
2019-02-25T00:25:57.921Z,100.00
2019-02-25T00:28:25.082Z,100.00
2019-02-25T00:30:52.138Z,100.00
2019-02-25T00:33:19.290Z,100.00
2019-02-25T00:35:46.360Z,100.00
2019-02-25T00:38:13.478Z,100.00
2019-02-25T00:40:40.536Z,100.00
2019-02-25T00:43:07.586Z,100.00
2019-02-25T00:45:34.691Z,100.00
2019-02-25T00:48:01.807Z,100.00
2019-02-25T00:50:28.863Z,100.00
2019-02-25T00:52:55.948Z,100.00
2019-02-25T00:55:23.051Z,100.00
2019-02-25T00:57:50.147Z,100.00
2019-02-25T01:00:17.468Z,100.00
2019-02-25T01:02:44.567Z,100.00
2019-02-25T01:05:11.623Z,100.00
2019-02-25T01:07:38.975Z,100.00
2019-02-25T01:10:06.637Z,100.00
2019-02-25T01:12:33.683Z,100.00
2019-02-25T01:15:00.717Z,100.00
2019-02-25T01:17:27.807Z,100.00
2019-02-25T01:19:54.889Z,100.00
2019-02-25T01:22:23.584Z,100.00
2019-02-25T01:24:50.670Z,100.00
2019-02-25T01:27:17.717Z,100.00
2019-02-25T01:29:44.763Z,100.00
2019-02-25T01:32:11.833Z,100.00
2019-02-25T01:34:38.891Z,100.00
2019-02-25T01:37:07.778Z,100.00
2019-02-25T01:39:34.847Z,100.00
2019-02-25T01:42:01.885Z,100.00
2019-02-25T01:44:28.941Z,100.00
2019-02-25T01:46:57.123Z,100.00
2019-02-25T01:49:24.160Z,100.00
2019-02-25T01:51:51.219Z,100.00
2019-02-25T01:54:18.287Z,100.00
2019-02-25T01:56:45.363Z,100.00
2019-02-25T01:59:12.399Z,100.00
2019-02-25T02:01:39.688Z,100.00
2019-02-25T02:04:06.706Z,100.00
2019-02-25T02:06:33.739Z,100.00
2019-02-25T02:09:00.837Z,100.00
2019-02-25T02:11:27.888Z,100.00
2019-02-25T02:13:54.940Z,100.00
2019-02-25T02:16:22.017Z,100.00
2019-02-25T02:18:49.072Z,100.00
2019-02-25T02:21:16.131Z,100.00
2019-02-25T02:23:43.227Z,100.00
2019-02-25T02:26:10.299Z,100.00
2019-02-25T02:28:37.329Z,100.00
2019-02-25T02:31:16.358Z,100.00
2019-02-25T02:33:43.446Z,100.00
2019-02-25T02:36:11.710Z,100.00
2019-02-25T02:38:39.103Z,100.00
2019-02-25T02:41:06.207Z,100.00
2019-02-25T02:43:33.235Z,100.00
2019-02-25T02:47:02.001Z,100.00
2019-02-25T02:49:29.047Z,100.00
2019-02-25T02:51:56.090Z,100.00
2019-02-25T02:54:23.173Z,100.00
2019-02-25T02:56:50.304Z,100.00
2019-02-25T02:59:17.375Z,100.00
2019-02-25T03:01:44.472Z,100.00
2019-02-25T03:04:11.501Z,100.00
2019-02-25T03:06:38.559Z,100.00
2019-02-25T03:09:08.849Z,100.00
2019-02-25T03:11:36.661Z,100.00
2019-02-25T03:14:03.838Z,100.00
2019-02-25T03:16:30.899Z,100.00
2019-02-25T03:18:57.975Z,100.00
2019-02-25T03:21:25.031Z,100.00
2019-02-25T03:23:52.092Z,100.00
2019-02-25T03:26:19.223Z,100.00
2019-02-25T03:28:46.265Z,100.00
2019-02-25T03:31:13.342Z,100.00
2019-02-25T03:33:40.498Z,100.00
2019-02-25T03:36:07.632Z,100.00
2019-02-25T03:38:34.694Z,100.00
2019-02-25T03:41:01.796Z,100.00
2019-02-25T03:43:28.846Z,100.00
2019-02-25T03:45:55.871Z,100.00
2019-02-25T03:48:22.939Z,100.00
2019-02-25T03:50:50.021Z,100.00
2019-02-25T03:53:17.053Z,100.00
2019-02-25T03:55:44.125Z,100.00
2019-02-25T03:58:11.294Z,100.00
2019-02-25T04:00:38.423Z,100.00
2019-02-25T04:03:05.494Z,100.00
2019-02-25T04:05:32.526Z,100.00
2019-02-25T04:07:59.606Z,100.00
2019-02-25T04:10:26.645Z,100.00
2019-02-25T04:12:53.706Z,100.00
2019-02-25T04:15:23.779Z,100.00
2019-02-25T04:17:50.838Z,100.00
2019-02-25T04:20:17.892Z,100.00
2019-02-25T04:22:44.979Z,100.00
2019-02-25T04:25:12.035Z,100.00
2019-02-25T04:27:40.879Z,100.00
2019-02-25T04:30:10.677Z,100.00
2019-02-25T04:32:37.731Z,100.00
2019-02-25T04:35:06.034Z,100.00
2019-02-25T04:37:33.115Z,100.00
2019-02-25T04:40:00.311Z,100.00
2019-02-25T04:42:27.318Z,100.00
2019-02-25T04:44:54.519Z,100.00
2019-02-25T04:47:22.677Z,100.00
2019-02-25T04:49:49.706Z,100.00
2019-02-25T04:52:16.789Z,100.00
2019-02-25T04:54:43.935Z,100.00
2019-02-25T04:57:11.035Z,100.00
2019-02-25T04:59:38.098Z,100.00
2019-02-25T05:02:42.940Z,100.00
2019-02-25T05:05:10.459Z,100.00
2019-02-25T05:07:37.500Z,100.00
2019-02-25T05:10:05.432Z,100.00
2019-02-25T05:12:32.516Z,100.00
2019-02-25T05:14:59.557Z,100.00
2019-02-25T05:17:26.628Z,100.00
2019-02-25T05:19:53.693Z,100.00
2019-02-25T05:22:20.733Z,100.00
2019-02-25T05:24:47.810Z,100.00
2019-02-25T05:27:14.962Z,98.38
2019-02-25T05:30:18.770Z,98.63
2019-02-25T05:32:45.867Z,98.54
2019-02-25T05:35:12.921Z,99.14
2019-02-25T05:37:39.991Z,99.60
2019-02-25T05:40:10.212Z,100.00
2019-02-25T05:43:20.264Z,100.00
2019-02-25T05:45:47.495Z,100.00
2019-02-25T05:48:15.559Z,100.00
2019-02-25T05:50:42.608Z,100.00
2019-02-25T05:53:09.700Z,100.00
2019-02-25T05:55:36.873Z,100.00
2019-02-25T05:58:03.936Z,100.00
2019-02-25T06:00:31.425Z,100.00
2019-02-25T06:02:58.480Z,100.00
2019-02-25T06:05:25.520Z,100.00
2019-02-25T06:07:52.595Z,100.00
2019-02-25T06:10:19.740Z,100.00
2019-02-25T06:12:46.792Z,100.00
2019-02-25T06:15:14.428Z,100.00
2019-02-25T06:17:41.478Z,100.00
2019-02-25T06:20:09.490Z,100.00
2019-02-25T06:22:36.557Z,100.00
2019-02-25T06:25:04.432Z,100.00
2019-02-25T06:27:31.470Z,100.00
2019-02-25T06:29:58.561Z,100.00
2019-02-25T06:32:25.608Z,100.00
2019-02-25T06:34:52.701Z,100.00
2019-02-25T06:37:22.826Z,100.00
2019-02-25T06:39:49.897Z,100.00
2019-02-25T06:42:16.949Z,100.00
2019-02-25T06:44:44.019Z,100.00
2019-02-25T06:47:11.082Z,100.00
2019-02-25T06:49:38.461Z,100.00
2019-02-25T06:52:05.519Z,100.00
2019-02-25T06:54:32.598Z,100.00
2019-02-25T06:56:59.679Z,100.00
2019-02-25T06:59:35.607Z,100.00
2019-02-25T07:02:02.640Z,100.00
2019-02-25T07:04:56.402Z,100.00
2019-02-25T07:07:46.060Z,100.00
2019-02-25T07:10:32.191Z,100.00
2019-02-25T07:16:27.707Z,100.00
2019-02-25T07:19:11.421Z,100.00
2019-02-25T07:21:58.736Z,100.00
2019-02-25T07:24:32.764Z,100.00
2019-02-25T07:27:23.289Z,100.00
2019-02-25T07:30:17.557Z,100.00
2019-02-25T07:33:07.230Z,100.00
2019-02-25T07:35:56.877Z,100.00
2019-02-25T07:38:52.368Z,99.04
2019-02-25T07:41:51.091Z,99.95
2019-02-25T07:44:29.262Z,99.51
2019-02-25T07:47:19.047Z,98.52
2019-02-25T07:50:08.787Z,99.10
2019-02-25T07:52:47.633Z,97.53
2019-02-25T07:55:33.082Z,97.46
2019-02-25T07:58:26.920Z,96.10
2019-02-25T08:01:03.581Z,93.81
2019-02-25T08:03:55.246Z,90.88
2019-02-25T08:06:47.971Z,88.54
2019-02-25T08:09:33.195Z,86.44
2019-02-25T08:12:19.862Z,85.07
2019-02-25T08:15:12.665Z,84.22
2019-02-25T08:18:02.765Z,85.19
2019-02-25T08:20:48.183Z,83.96
2019-02-25T08:23:30.654Z,82.52
2019-02-25T08:26:38.693Z,82.61
2019-02-25T08:29:28.278Z,81.98
2019-02-25T08:32:21.387Z,81.70
2019-02-25T08:35:14.031Z,81.61
2019-02-25T08:37:56.154Z,80.80
2019-02-25T08:41:16.937Z,79.76
2019-02-25T08:44:03.614Z,79.02
2019-02-25T08:46:53.514Z,78.54
2019-02-25T08:49:24.352Z,78.24
2019-02-25T08:51:51.404Z,77.46
2019-02-25T08:54:18.491Z,76.44
2019-02-25T08:56:45.600Z,75.70
2019-02-25T08:59:12.748Z,75.08
2019-02-25T09:01:39.916Z,75.13
2019-02-25T09:04:06.988Z,74.50
2019-02-25T09:06:34.049Z,74.41
2019-02-25T09:09:01.130Z,74.45
2019-02-25T09:11:46.387Z,73.69
2019-02-25T09:14:13.433Z,72.51
2019-02-25T09:16:40.591Z,71.97
2019-02-25T09:20:03.000Z,70.65
2019-02-25T09:22:36.293Z,69.92
2019-02-25T09:25:03.615Z,69.26
2019-02-25T09:27:30.709Z,68.77
2019-02-25T09:29:57.776Z,68.14
2019-02-25T09:32:24.863Z,67.50
2019-02-25T09:34:51.932Z,65.69
2019-02-25T09:37:19.068Z,65.51
2019-02-25T09:39:46.116Z,64.81
2019-02-25T09:42:13.210Z,63.94
2019-02-25T09:44:40.249Z,63.12
2019-02-25T09:47:07.347Z,62.27
2019-02-25T09:49:34.455Z,61.75
2019-02-25T09:52:01.731Z,61.64
2019-02-25T09:54:28.848Z,60.59
2019-02-25T09:56:55.967Z,60.59
2019-02-25T09:59:23.088Z,60.63
2019-02-25T10:01:50.207Z,60.02
2019-02-25T10:04:17.387Z,59.68
2019-02-25T10:06:44.499Z,58.83
2019-02-25T10:09:11.713Z,58.21
2019-02-25T10:11:38.763Z,58.32
2019-02-25T10:14:05.884Z,58.59
2019-02-25T10:16:32.971Z,58.34
2019-02-25T10:19:00.063Z,58.33
2019-02-25T10:21:28.360Z,57.82
2019-02-25T10:23:55.482Z,57.01
2019-02-25T10:26:22.623Z,56.46
2019-02-25T10:28:49.691Z,56.10
2019-02-25T10:31:17.495Z,55.99
2019-02-25T10:33:44.624Z,56.01
2019-02-25T10:37:05.603Z,55.87
2019-02-25T10:39:32.663Z,55.68
2019-02-25T10:42:01.601Z,55.64
2019-02-25T10:44:29.719Z,54.74
2019-02-25T10:46:57.263Z,53.82
2019-02-25T10:49:25.096Z,53.42
2019-02-25T10:51:53.334Z,53.52
2019-02-25T10:54:21.254Z,53.24
2019-02-25T10:56:54.216Z,53.79
2019-02-25T10:59:24.485Z,54.15
2019-02-25T11:02:11.602Z,55.06
2019-02-25T11:04:39.658Z,54.84
2019-02-25T11:07:27.192Z,54.49
2019-02-25T11:10:20.332Z,54.92
2019-02-25T11:12:48.893Z,54.93
2019-02-25T11:15:16.068Z,54.75
2019-02-25T11:17:43.225Z,54.96
2019-02-25T11:21:13.535Z,55.15
2019-02-25T11:23:40.601Z,54.36
2019-02-25T11:26:09.312Z,54.55
2019-02-25T11:28:39.190Z,54.76
2019-02-25T11:31:05.590Z,55.37
2019-02-25T11:33:34.351Z,55.79
2019-02-25T11:36:01.627Z,55.41
2019-02-25T11:38:30.404Z,55.08
2019-02-25T11:40:59.833Z,55.00
2019-02-25T11:43:27.602Z,54.78
2019-02-25T11:46:35.827Z,54.44
2019-02-25T11:49:03.160Z,55.30
2019-02-25T11:51:30.325Z,55.18
2019-02-25T11:53:59.440Z,55.05
2019-02-25T11:56:26.586Z,55.14
2019-02-25T11:58:53.671Z,55.49
2019-02-25T12:01:20.807Z,55.63
2019-02-25T12:03:47.904Z,55.51
2019-02-25T12:06:14.960Z,55.63
2019-02-25T12:08:42.137Z,55.71
2019-02-25T12:11:09.251Z,55.66
2019-02-25T12:13:36.354Z,55.92
2019-02-25T12:16:03.523Z,55.85
2019-02-25T12:18:30.688Z,55.68
2019-02-25T12:20:57.839Z,55.28
2019-02-25T12:23:24.904Z,55.05
2019-02-25T12:25:51.988Z,54.51
2019-02-25T12:28:19.186Z,53.67
2019-02-25T12:30:46.303Z,54.25
2019-02-25T12:33:13.353Z,53.84
2019-02-25T12:35:40.434Z,52.30
2019-02-25T12:38:07.560Z,50.91
2019-02-25T12:40:34.605Z,51.78
2019-02-25T12:43:01.657Z,51.28
2019-02-25T12:45:29.086Z,50.64
2019-02-25T12:47:56.190Z,50.67
2019-02-25T12:50:24.360Z,50.26
2019-02-25T12:52:51.444Z,49.96
2019-02-25T12:55:18.495Z,49.61
2019-02-25T12:58:24.693Z,49.44
2019-02-25T13:00:51.802Z,49.78
2019-02-25T13:03:18.978Z,49.24
2019-02-25T13:05:46.146Z,48.40
2019-02-25T13:08:14.946Z,47.90
2019-02-25T13:10:42.014Z,45.78
2019-02-25T13:13:09.063Z,44.84
2019-02-25T13:15:36.143Z,45.22
2019-02-25T13:18:03.294Z,44.53
2019-02-25T13:20:30.351Z,45.60
2019-02-25T13:22:57.459Z,45.49
2019-02-25T13:25:25.670Z,44.56
2019-02-25T13:27:54.355Z,42.81
2019-02-25T13:30:21.853Z,42.24
2019-02-25T13:32:48.937Z,41.76
2019-02-25T13:35:15.997Z,40.91
2019-02-25T13:37:43.520Z,41.22
2019-02-25T13:40:10.704Z,40.58
2019-02-25T13:42:37.764Z,40.44
2019-02-25T13:45:05.127Z,40.10
2019-02-25T13:47:32.369Z,40.23
2019-02-25T13:49:59.521Z,39.03
2019-02-25T13:52:26.602Z,38.10
2019-02-25T13:55:19.529Z,38.21
2019-02-25T13:57:46.621Z,38.24
2019-02-25T14:00:16.132Z,38.61
2019-02-25T14:02:43.651Z,38.45
2019-02-25T14:05:10.763Z,38.04
2019-02-25T14:07:37.925Z,38.75
2019-02-25T14:10:06.770Z,37.77
2019-02-25T14:12:33.919Z,37.66
2019-02-25T14:15:01.009Z,36.73
2019-02-25T14:17:28.165Z,36.95
2019-02-25T14:19:55.416Z,37.07
2019-02-25T14:22:22.509Z,36.68
2019-02-25T14:24:49.757Z,36.65
2019-02-25T14:27:16.809Z,37.18
2019-02-25T14:29:44.641Z,36.84
2019-02-25T14:32:15.263Z,36.51
2019-02-25T14:34:44.423Z,36.56
2019-02-25T14:37:13.758Z,37.03
2019-02-25T14:39:43.142Z,36.84
2019-02-25T14:42:11.985Z,37.02
2019-02-25T14:48:15.387Z,37.24
2019-02-25T14:50:41.814Z,37.61
2019-02-25T14:53:11.577Z,37.02
2019-02-25T14:55:40.670Z,36.66
2019-02-25T14:58:09.844Z,37.26
2019-02-25T15:00:38.389Z,37.32
2019-02-25T15:03:05.475Z,37.35
2019-02-25T15:05:32.648Z,37.60
2019-02-25T15:08:00.054Z,37.99
2019-02-25T15:10:29.654Z,38.13
2019-02-25T15:12:58.659Z,38.51
2019-02-25T15:22:33.961Z,37.48
2019-02-25T15:25:01.250Z,38.14
2019-02-25T15:27:28.311Z,39.02
2019-02-25T15:29:56.579Z,39.02
2019-02-25T15:32:23.637Z,38.58
2019-02-25T15:34:51.202Z,38.84
2019-02-25T15:37:19.658Z,39.39
2019-02-25T15:39:46.760Z,39.26
2019-02-25T15:42:16.629Z,39.55
2019-02-25T15:44:44.508Z,39.55
2019-02-25T15:47:13.328Z,39.75
2019-02-25T15:49:43.745Z,39.83
2019-02-25T15:52:14.648Z,39.85
2019-02-25T15:54:41.425Z,39.92
2019-02-25T15:57:09.081Z,40.14
2019-02-25T15:59:45.040Z,40.29
2019-02-25T16:02:14.175Z,39.97
2019-02-25T16:04:42.367Z,40.30
2019-02-25T16:07:10.563Z,40.89
2019-02-25T16:09:45.229Z,42.01
2019-02-25T16:12:12.358Z,42.22
2019-02-25T16:14:39.572Z,42.93
2019-02-25T16:17:06.645Z,43.06
2019-02-25T16:19:41.305Z,43.63
2019-02-25T16:22:03.524Z,44.09
2019-02-25T16:24:31.964Z,44.45
2019-02-25T16:27:00.526Z,44.33
2019-02-25T16:29:28.031Z,44.56
2019-02-25T16:31:55.600Z,44.72
2019-02-25T16:34:23.953Z,45.37
2019-02-25T16:36:52.000Z,45.28
2019-02-25T16:39:20.123Z,44.91
2019-02-25T16:41:47.791Z,45.48
2019-02-25T16:44:15.126Z,46.03
2019-02-25T16:46:43.849Z,46.38
2019-02-25T16:49:11.469Z,47.03
2019-02-25T16:51:38.588Z,47.43
2019-02-25T16:54:11.011Z,47.76
2019-02-25T16:56:36.633Z,48.56
2019-02-25T16:59:10.615Z,49.06
2019-02-25T17:01:34.968Z,49.30
2019-02-25T17:04:01.824Z,49.53
2019-02-25T17:06:30.400Z,50.17
2019-02-25T17:08:57.981Z,50.87
2019-02-25T17:11:25.018Z,51.66
2019-02-25T17:13:53.000Z,52.55
2019-02-25T17:16:24.116Z,53.40
2019-02-25T17:18:50.269Z,53.64
2019-02-25T17:21:17.345Z,54.21
2019-02-25T17:23:44.423Z,54.52
2019-02-25T17:26:12.630Z,54.99
2019-02-25T17:28:40.689Z,56.03
2019-02-25T17:31:08.980Z,57.52
2019-02-25T17:33:37.519Z,58.62
2019-02-25T17:36:06.234Z,59.90
2019-02-25T17:38:41.120Z,61.27
2019-02-25T17:41:13.129Z,62.33
2019-02-25T17:43:42.546Z,63.45
2019-02-25T17:46:11.535Z,64.56
2019-02-25T17:48:38.505Z,65.72
2019-02-25T17:51:05.678Z,66.60
2019-02-25T17:53:32.858Z,67.27
2019-02-25T17:56:00.260Z,67.88
2019-02-25T17:58:27.332Z,68.94
2019-02-25T18:00:56.334Z,70.56
2019-02-25T18:03:24.271Z,71.86
2019-02-25T18:05:52.960Z,72.62
2019-02-25T18:08:22.806Z,72.55
2019-02-25T18:10:51.978Z,72.52
2019-02-25T18:13:19.786Z,73.23
2019-02-25T18:15:51.549Z,74.34
2019-02-25T18:18:25.528Z,75.30
2019-02-25T18:20:53.629Z,76.62
2019-02-25T18:23:21.722Z,76.07
2019-02-25T18:25:49.339Z,76.38
2019-02-25T18:28:17.849Z,76.63
2019-02-25T18:30:45.586Z,76.60
2019-02-25T18:33:13.425Z,76.91
2019-02-25T18:35:41.663Z,76.91
2019-02-25T18:38:09.899Z,76.65
2019-02-25T18:40:38.769Z,76.75
2019-02-25T18:43:07.110Z,78.60
2019-02-25T18:45:38.460Z,80.85
2019-02-25T18:48:07.898Z,82.14
2019-02-25T18:50:35.965Z,81.99
2019-02-25T18:53:03.662Z,83.14
2019-02-25T18:55:34.229Z,83.04
2019-02-25T18:58:05.628Z,83.03
2019-02-25T19:03:24.981Z,83.35
2019-02-25T19:05:57.053Z,83.17
2019-02-25T19:08:26.780Z,83.62
2019-02-25T19:11:51.230Z,84.51
2019-02-25T19:14:21.786Z,85.03
2019-02-25T19:16:48.688Z,85.29
2019-02-25T19:19:18.792Z,85.40
2019-02-25T19:21:47.865Z,85.61
2019-02-25T19:24:18.274Z,85.73
2019-02-25T19:26:46.926Z,86.05
2019-02-25T19:29:15.229Z,86.91
2019-02-25T19:31:44.056Z,88.50
2019-02-25T19:34:11.300Z,90.22
2019-02-25T19:36:41.241Z,89.57
2019-02-25T19:39:12.403Z,89.68
2019-02-25T19:41:40.549Z,90.58
2019-02-25T19:44:08.040Z,91.99
2019-02-25T19:46:45.644Z,93.53
2019-02-25T19:49:16.003Z,93.66
2019-02-25T19:52:02.172Z,93.38
2019-02-25T19:54:29.627Z,94.24
2019-02-25T19:56:58.000Z,95.33
2019-02-25T19:59:26.828Z,95.03
2019-02-25T20:01:54.503Z,94.84
2019-02-25T20:04:21.653Z,94.62
2019-02-25T20:06:49.441Z,95.14
2019-02-25T20:09:18.740Z,95.24
2019-02-25T20:11:45.880Z,95.92
2019-02-25T20:14:16.498Z,96.14
2019-02-25T20:16:42.137Z,96.04
2019-02-25T20:19:29.579Z,96.34
2019-02-25T20:21:57.162Z,96.44
2019-02-25T20:24:25.632Z,96.14
2019-02-25T20:26:57.623Z,95.48
2019-02-25T20:29:22.033Z,96.65
2019-02-25T20:31:50.177Z,96.04
2019-02-25T20:34:20.466Z,96.24
2019-02-25T20:36:48.316Z,98.10
2019-02-25T20:39:17.047Z,97.88
2019-02-25T20:41:45.817Z,98.18
2019-02-25T20:44:13.797Z,98.17
2019-02-25T20:46:40.901Z,99.03
2019-02-25T20:49:08.121Z,98.83
2019-02-25T20:51:36.208Z,98.54
2019-02-25T20:54:03.430Z,99.53
2019-02-25T20:56:31.485Z,98.83
2019-02-25T20:59:06.177Z,100.00
2019-02-25T21:01:37.143Z,100.00
2019-02-25T21:04:02.977Z,100.00
2019-02-25T21:06:30.147Z,100.00
2019-02-25T21:09:06.586Z,100.00
2019-02-25T21:11:33.891Z,100.00
2019-02-25T21:14:00.991Z,100.00
2019-02-25T21:16:30.482Z,100.00
2019-02-25T21:18:57.435Z,100.00
2019-02-25T21:21:24.561Z,100.00
2019-02-25T21:23:51.735Z,100.00
2019-02-25T21:26:18.850Z,100.00
2019-02-25T21:28:46.059Z,100.00
2019-02-25T21:31:14.595Z,100.00
2019-02-25T21:33:44.872Z,100.00
2019-02-25T21:36:11.183Z,100.00
2019-02-25T21:38:38.250Z,100.00
2019-02-25T21:41:07.479Z,100.00
2019-02-25T21:43:34.506Z,100.00
2019-02-25T21:46:01.792Z,100.00
2019-02-25T21:48:30.250Z,100.00
2019-02-25T21:51:02.223Z,100.00
2019-02-25T21:53:27.317Z,100.00
2019-02-25T21:55:55.972Z,100.00
2019-02-25T21:58:25.350Z,100.00
2019-02-25T22:00:53.338Z,100.00
2019-02-25T22:03:21.809Z,100.00
2019-02-25T22:05:49.483Z,100.00
2019-02-25T22:08:20.099Z,100.00
2019-02-25T22:10:47.035Z,100.00
2019-02-25T22:13:15.942Z,100.00
2019-02-25T22:15:49.059Z,100.00
2019-02-25T22:18:16.261Z,100.00
2019-02-25T22:20:45.392Z,100.00
2019-02-25T22:23:12.337Z,100.00
2019-02-25T22:25:39.529Z,100.00
2019-02-25T22:28:07.846Z,100.00
2019-02-25T22:30:35.583Z,100.00
2019-02-25T22:33:04.704Z,100.00
2019-02-25T22:35:35.492Z,100.00
2019-02-25T22:38:02.728Z,100.00
2019-02-25T22:40:32.139Z,100.00
2019-02-25T22:42:59.054Z,100.00
2019-02-25T22:45:26.237Z,100.00
2019-02-25T22:47:53.332Z,100.00
2019-02-25T22:50:20.406Z,100.00
2019-02-25T22:52:51.638Z,100.00
2019-02-25T22:55:18.486Z,100.00
2019-02-25T22:57:50.511Z,100.00
2019-02-25T23:00:28.237Z,100.00
2019-02-25T23:02:56.778Z,100.00
2019-02-25T23:05:25.508Z,100.00
2019-02-25T23:07:54.568Z,100.00
2019-02-25T23:10:22.332Z,100.00
2019-02-25T23:12:50.755Z,100.00
2019-02-25T23:15:18.645Z,100.00
2019-02-25T23:17:47.078Z,100.00
2019-02-25T23:20:20.264Z,100.00
2019-02-25T23:22:47.327Z,100.00
2019-02-25T23:25:14.448Z,100.00
2019-02-25T23:27:41.528Z,100.00
2019-02-25T23:30:09.094Z,100.00
2019-02-25T23:32:39.422Z,100.00
2019-02-25T23:35:09.427Z,100.00
2019-02-25T23:37:36.575Z,100.00
2019-02-25T23:40:06.741Z,100.00
2019-02-25T23:42:35.597Z,100.00
2019-02-25T23:45:02.055Z,100.00
2019-02-25T23:47:31.150Z,100.00
2019-02-25T23:49:58.139Z,100.00
2019-02-25T23:52:25.695Z,100.00
2019-02-25T23:54:54.765Z,100.00
2019-02-25T23:57:23.848Z,100.00
2019-02-25T23:59:53.991Z,100.00
